createdAt,value
2022-09-21T00:01:08.266Z,5.28
2022-09-21T00:03:35.968Z,5.34
2022-09-21T00:06:05.819Z,5.40
2022-09-21T00:08:33.373Z,5.34
2022-09-21T00:11:01.162Z,5.27
2022-09-21T00:13:29.153Z,5.35
2022-09-21T00:15:56.825Z,5.34
2022-09-21T00:18:24.820Z,5.21
2022-09-21T00:20:52.799Z,5.33
2022-09-21T00:23:22.019Z,5.18
2022-09-21T00:25:49.510Z,5.18
2022-09-21T00:28:17.189Z,4.96
2022-09-21T00:30:44.699Z,4.98
2022-09-21T00:33:12.206Z,5.06
2022-09-21T00:35:40.199Z,5.08
2022-09-21T00:38:07.730Z,5.07
2022-09-21T00:40:36.600Z,5.07
2022-09-21T00:43:14.979Z,5.05
2022-09-21T00:45:42.998Z,4.98
2022-09-21T00:48:55.114Z,4.92
2022-09-21T00:51:22.875Z,4.82
2022-09-21T00:53:54.055Z,4.79
2022-09-21T00:56:21.583Z,4.85
2022-09-21T00:58:51.563Z,4.81
2022-09-21T01:01:19.274Z,4.72
2022-09-21T01:03:47.426Z,4.72
2022-09-21T01:06:18.162Z,4.74
2022-09-21T01:08:47.846Z,4.77
2022-09-21T01:11:28.973Z,4.65
2022-09-21T01:14:13.391Z,4.68
2022-09-21T01:16:46.193Z,4.73
2022-09-21T01:19:28.080Z,4.64
2022-09-21T01:22:03.942Z,4.55
2022-09-21T01:24:45.078Z,4.65
2022-09-21T01:27:36.596Z,4.56
2022-09-21T01:30:07.089Z,4.48
2022-09-21T01:32:38.664Z,4.55
2022-09-21T01:35:10.126Z,4.73
2022-09-21T01:37:40.180Z,4.59
2022-09-21T01:40:11.069Z,4.43
2022-09-21T01:42:40.271Z,4.41
2022-09-21T01:45:10.651Z,4.52
2022-09-21T01:47:38.863Z,4.62
2022-09-21T01:50:09.590Z,4.63
2022-09-21T01:52:39.081Z,4.47
2022-09-21T01:55:10.329Z,4.50
2022-09-21T01:57:43.235Z,4.41
2022-09-21T02:00:13.496Z,4.37
2022-09-21T02:02:44.798Z,4.38
2022-09-21T02:05:13.530Z,4.34
2022-09-21T02:07:41.074Z,4.52
2022-09-21T02:10:09.779Z,4.62
2022-09-21T02:12:38.463Z,4.73
2022-09-21T02:15:06.732Z,4.56
2022-09-21T02:17:40.062Z,4.44
2022-09-21T02:20:17.492Z,4.36
2022-09-21T02:22:54.822Z,4.40
2022-09-21T02:25:26.555Z,4.34
2022-09-21T02:27:57.468Z,4.17
2022-09-21T02:30:26.152Z,4.12
2022-09-21T02:33:00.356Z,4.20
2022-09-21T02:35:33.076Z,4.26
2022-09-21T02:38:08.174Z,4.42
2022-09-21T02:40:38.832Z,4.52
2022-09-21T02:43:10.296Z,4.40
2022-09-21T02:45:42.892Z,4.33
2022-09-21T02:48:14.512Z,4.43
2022-09-21T02:50:45.407Z,4.36
2022-09-21T02:53:14.666Z,4.33
2022-09-21T02:55:42.520Z,4.29
2022-09-21T02:58:11.429Z,4.25
2022-09-21T03:00:39.218Z,4.23
2022-09-21T03:03:18.095Z,4.08
2022-09-21T03:05:46.672Z,4.13
2022-09-21T03:08:14.187Z,4.36
2022-09-21T03:10:41.720Z,4.35
2022-09-21T03:13:10.034Z,4.15
2022-09-21T03:15:37.786Z,4.03
2022-09-21T03:18:05.962Z,4.10
2022-09-21T03:20:35.117Z,4.10
2022-09-21T03:23:02.687Z,3.96
2022-09-21T03:25:30.903Z,3.90
2022-09-21T03:27:59.067Z,3.98
2022-09-21T03:30:28.081Z,4.06
2022-09-21T03:32:56.202Z,3.98
2022-09-21T03:35:25.277Z,4.12
2022-09-21T03:37:54.955Z,4.11
2022-09-21T03:40:23.116Z,4.03
2022-09-21T03:42:50.660Z,4.23
2022-09-21T03:45:18.436Z,4.21
2022-09-21T03:47:46.511Z,4.38
2022-09-21T03:50:14.105Z,4.11
2022-09-21T03:52:41.983Z,3.87
2022-09-21T03:55:11.095Z,3.87
2022-09-21T03:57:39.166Z,3.86
2022-09-21T04:00:09.239Z,3.93
2022-09-21T04:02:37.059Z,3.86
2022-09-21T04:05:06.753Z,3.86
2022-09-21T04:07:35.710Z,3.79
2022-09-21T04:10:03.568Z,3.83
2022-09-21T04:12:32.823Z,4.22
2022-09-21T04:15:00.317Z,4.29
2022-09-21T04:17:27.858Z,4.13
2022-09-21T04:19:55.377Z,4.16
2022-09-21T04:22:24.775Z,4.31
2022-09-21T04:24:52.304Z,4.14
2022-09-21T04:27:19.824Z,4.06
2022-09-21T04:29:48.948Z,4.25
2022-09-21T04:32:16.434Z,4.29
2022-09-21T04:34:44.083Z,4.30
2022-09-21T04:37:11.814Z,4.25
2022-09-21T04:39:39.309Z,4.11
2022-09-21T04:42:07.314Z,4.16
2022-09-21T04:44:34.818Z,4.29
2022-09-21T04:47:03.771Z,4.36
2022-09-21T04:49:31.272Z,4.18
2022-09-21T04:51:58.791Z,4.03
2022-09-21T04:54:26.282Z,3.92
2022-09-21T04:56:53.832Z,3.94
2022-09-21T04:59:21.330Z,3.79
2022-09-21T05:01:48.880Z,3.70
2022-09-21T05:04:17.915Z,3.71
2022-09-21T05:06:45.402Z,3.65
2022-09-21T05:09:30.422Z,3.99
2022-09-21T05:11:57.928Z,3.86
2022-09-21T05:14:25.502Z,3.63
2022-09-21T05:16:53.030Z,3.50
2022-09-21T05:19:22.718Z,3.57
2022-09-21T05:21:50.203Z,3.53
2022-09-21T05:24:17.712Z,3.48
2022-09-21T05:26:45.202Z,3.45
2022-09-21T05:29:13.331Z,3.50
2022-09-21T05:31:44.709Z,3.65
2022-09-21T05:34:39.799Z,3.70
2022-09-21T05:37:11.648Z,3.69
2022-09-21T05:39:39.230Z,3.79
2022-09-21T05:42:07.030Z,3.85
2022-09-21T05:44:35.115Z,3.97
2022-09-21T05:47:05.726Z,4.13
2022-09-21T05:49:45.655Z,4.31
2022-09-21T05:52:19.024Z,4.43
2022-09-21T05:54:54.850Z,4.46
2022-09-21T05:57:31.090Z,4.48
2022-09-21T06:00:05.266Z,4.34
2022-09-21T06:02:54.898Z,4.36
2022-09-21T06:05:24.700Z,4.54
2022-09-21T06:07:52.234Z,4.68
2022-09-21T06:10:20.034Z,4.74
2022-09-21T06:12:47.652Z,4.96
2022-09-21T06:15:16.421Z,5.20
2022-09-21T06:17:44.383Z,5.24
2022-09-21T06:20:11.906Z,5.39
2022-09-21T06:22:40.772Z,5.41
2022-09-21T06:25:08.928Z,5.44
2022-09-21T06:27:36.444Z,5.50
2022-09-21T06:30:04.281Z,5.64
2022-09-21T06:32:32.079Z,5.79
2022-09-21T06:34:59.579Z,5.89
2022-09-21T06:37:27.094Z,6.02
2022-09-21T06:39:55.949Z,6.17
2022-09-21T06:42:23.484Z,6.33
2022-09-21T06:44:50.980Z,6.51
2022-09-21T06:47:18.507Z,6.66
2022-09-21T06:49:45.998Z,6.94
2022-09-21T06:52:13.507Z,7.04
2022-09-21T06:54:42.297Z,7.18
2022-09-21T06:57:11.152Z,7.31
2022-09-21T06:59:38.678Z,7.45
2022-09-21T07:02:07.043Z,7.61
2022-09-21T07:04:34.643Z,7.82
2022-09-21T07:07:04.488Z,7.98
2022-09-21T07:12:21.882Z,8.24
2022-09-21T07:14:49.723Z,8.40
2022-09-21T07:17:17.344Z,8.50
2022-09-21T07:20:39.258Z,8.64
2022-09-21T07:23:11.452Z,8.75
2022-09-21T07:25:39.758Z,8.78
2022-09-21T07:28:07.286Z,8.97
2022-09-21T07:30:34.810Z,9.04
2022-09-21T07:33:02.348Z,9.10
2022-09-21T07:35:29.960Z,9.17
2022-09-21T07:38:00.211Z,9.23
2022-09-21T07:40:28.488Z,9.42
2022-09-21T07:42:59.373Z,9.56
2022-09-21T07:45:27.232Z,9.66
2022-09-21T07:47:56.500Z,9.76
2022-09-21T07:50:24.522Z,9.82
2022-09-21T07:52:52.036Z,9.93
2022-09-21T07:55:20.933Z,10.06
2022-09-21T07:58:07.927Z,10.12
2022-09-21T08:00:35.632Z,10.38
2022-09-21T08:03:03.347Z,10.48
2022-09-21T08:05:30.902Z,10.62
2022-09-21T08:07:58.670Z,10.69
2022-09-21T08:10:29.899Z,10.78
2022-09-21T08:12:57.604Z,10.91
2022-09-21T08:15:47.350Z,10.92
2022-09-21T08:18:12.779Z,11.07
2022-09-21T08:20:40.296Z,11.01
2022-09-21T08:23:07.920Z,11.06
2022-09-21T08:25:36.802Z,11.18
2022-09-21T08:28:09.414Z,11.14
2022-09-21T08:30:37.460Z,11.35
2022-09-21T08:33:06.907Z,11.47
2022-09-21T08:35:34.646Z,11.47
2022-09-21T08:38:02.168Z,11.54
2022-09-21T08:40:30.307Z,11.53
2022-09-21T08:43:01.790Z,11.72
2022-09-21T08:45:33.760Z,11.85
2022-09-21T08:48:03.875Z,11.97
2022-09-21T08:50:35.576Z,12.03
2022-09-21T08:53:06.481Z,12.19
2022-09-21T08:55:34.372Z,12.32
2022-09-21T08:58:03.260Z,12.38
2022-09-21T09:00:34.485Z,12.42
2022-09-21T09:03:24.234Z,12.48
2022-09-21T09:05:56.631Z,12.57
2022-09-21T09:08:47.260Z,12.71
2022-09-21T09:11:24.234Z,12.79
2022-09-21T09:14:05.265Z,12.79
2022-09-21T09:16:38.618Z,13.13
2022-09-21T09:19:13.104Z,13.07
2022-09-21T09:21:41.946Z,12.77
2022-09-21T09:24:12.533Z,13.24
2022-09-21T09:26:44.955Z,13.27
2022-09-21T09:29:19.408Z,13.63
2022-09-21T09:31:47.460Z,14.04
2022-09-21T09:34:17.510Z,14.02
2022-09-21T09:36:58.222Z,14.28
2022-09-21T09:39:26.738Z,14.21
2022-09-21T09:42:17.643Z,14.56
2022-09-21T09:45:11.706Z,14.73
2022-09-21T09:47:48.434Z,14.87
2022-09-21T09:50:21.680Z,15.12
2022-09-21T09:52:50.759Z,14.60
2022-09-21T09:55:20.164Z,14.65
2022-09-21T09:57:48.789Z,14.68
2022-09-21T10:00:19.796Z,14.64
2022-09-21T10:02:49.377Z,14.85
2022-09-21T10:05:22.743Z,14.90
2022-09-21T10:07:50.708Z,15.96
2022-09-21T10:10:30.946Z,15.11
2022-09-21T10:13:04.249Z,14.39
2022-09-21T10:15:33.359Z,14.16
2022-09-21T10:18:16.628Z,15.07
2022-09-21T10:20:55.110Z,15.07
2022-09-21T10:23:23.668Z,15.56
2022-09-21T10:25:56.112Z,16.35
2022-09-21T10:28:24.377Z,16.36
2022-09-21T10:31:09.965Z,15.76
2022-09-21T10:33:47.763Z,16.31
2022-09-21T10:36:27.874Z,15.76
2022-09-21T10:38:55.663Z,16.15
2022-09-21T10:41:23.478Z,16.48
2022-09-21T10:43:51.727Z,16.61
2022-09-21T10:46:33.864Z,16.56
2022-09-21T10:49:02.023Z,16.57
2022-09-21T10:51:30.974Z,16.29
2022-09-21T10:53:58.646Z,15.12
2022-09-21T10:56:26.863Z,14.92
2022-09-21T10:59:21.174Z,14.85
2022-09-21T11:01:51.452Z,15.05
2022-09-21T11:04:25.018Z,15.03
2022-09-21T11:06:55.987Z,14.82
2022-09-21T11:09:26.335Z,15.10
2022-09-21T11:11:58.092Z,15.34
2022-09-21T11:14:42.482Z,15.26
2022-09-21T11:17:14.893Z,15.06
2022-09-21T11:19:45.459Z,15.01
2022-09-21T11:22:16.538Z,14.87
2022-09-21T11:24:49.428Z,15.28
2022-09-21T11:27:20.759Z,15.29
2022-09-21T11:29:56.524Z,15.90
2022-09-21T11:32:38.192Z,17.33
2022-09-21T11:35:35.008Z,17.63
2022-09-21T11:38:06.646Z,17.73
2022-09-21T11:40:43.171Z,17.33
2022-09-21T11:43:23.573Z,16.82
2022-09-21T11:45:58.866Z,17.23
2022-09-21T11:48:37.899Z,16.95
2022-09-21T11:51:14.937Z,16.33
2022-09-21T11:53:53.575Z,16.48
2022-09-21T11:56:43.655Z,16.80
2022-09-21T11:59:29.156Z,16.46
2022-09-21T12:02:17.445Z,16.40
2022-09-21T12:04:50.216Z,16.41
2022-09-21T12:07:31.203Z,16.88
2022-09-21T12:10:11.046Z,16.73
2022-09-21T12:12:42.495Z,17.08
2022-09-21T12:15:13.993Z,17.10
2022-09-21T12:17:49.462Z,16.22
2022-09-21T12:20:36.068Z,15.99
2022-09-21T12:23:08.948Z,16.26
2022-09-21T12:25:40.786Z,16.42
2022-09-21T12:28:13.490Z,15.99
2022-09-21T12:30:44.235Z,15.83
2022-09-21T12:33:17.704Z,16.18
2022-09-21T12:35:48.861Z,16.67
2022-09-21T12:38:24.507Z,16.80
2022-09-21T12:40:54.717Z,17.18
2022-09-21T12:43:29.634Z,17.06
2022-09-21T12:46:00.026Z,16.16
2022-09-21T12:48:33.080Z,16.26
2022-09-21T12:51:06.716Z,16.14
2022-09-21T12:53:37.614Z,16.32
2022-09-21T12:56:10.014Z,16.11
2022-09-21T12:58:58.584Z,16.07
2022-09-21T13:01:32.236Z,15.20
2022-09-21T13:04:13.299Z,15.35
2022-09-21T13:07:17.010Z,15.55
2022-09-21T13:09:45.995Z,15.54
2022-09-21T13:12:17.874Z,15.49
2022-09-21T13:14:47.686Z,15.83
2022-09-21T13:17:22.178Z,16.14
2022-09-21T13:19:58.562Z,16.23
2022-09-21T13:22:28.525Z,16.31
2022-09-21T13:25:02.944Z,16.20
2022-09-21T13:28:00.462Z,16.24
2022-09-21T13:30:42.484Z,16.20
2022-09-21T13:33:32.197Z,16.61
2022-09-21T13:36:19.879Z,17.00
2022-09-21T13:39:15.599Z,17.13
2022-09-21T13:42:02.349Z,17.18
2022-09-21T13:44:48.535Z,17.56
2022-09-21T13:47:29.267Z,17.19
2022-09-21T13:50:00.522Z,17.66
2022-09-21T13:52:40.240Z,17.69
2022-09-21T13:55:25.185Z,17.46
2022-09-21T13:57:56.071Z,17.24
2022-09-21T14:00:33.660Z,17.02
2022-09-21T14:03:04.599Z,17.10
2022-09-21T14:05:36.260Z,17.04
2022-09-21T14:08:06.727Z,17.61
2022-09-21T14:10:37.230Z,17.79
2022-09-21T14:13:10.400Z,17.80
2022-09-21T14:15:40.316Z,18.01
2022-09-21T14:18:47.484Z,18.05
2022-09-21T14:21:18.354Z,18.03
2022-09-21T14:24:20.958Z,18.44
2022-09-21T14:26:56.467Z,17.67
2022-09-21T14:29:26.742Z,18.05
2022-09-21T14:31:56.037Z,18.06
2022-09-21T14:34:27.067Z,17.90
2022-09-21T14:36:57.409Z,17.95
2022-09-21T14:39:27.467Z,17.90
2022-09-21T14:41:58.697Z,17.67
2022-09-21T14:44:29.868Z,17.59
2022-09-21T14:47:28.582Z,17.47
2022-09-21T14:50:26.399Z,17.13
2022-09-21T14:53:09.747Z,16.89
2022-09-21T14:55:51.630Z,17.07
2022-09-21T14:58:31.282Z,17.14
2022-09-21T15:01:21.025Z,17.09
2022-09-21T15:04:01.836Z,17.30
2022-09-21T15:06:51.876Z,17.84
2022-09-21T15:10:03.616Z,17.40
2022-09-21T15:12:38.132Z,17.86
2022-09-21T15:15:22.891Z,17.28
2022-09-21T15:17:59.287Z,17.16
2022-09-21T15:20:29.400Z,17.58
2022-09-21T15:22:57.323Z,17.33
2022-09-21T15:25:26.267Z,17.47
2022-09-21T15:27:53.770Z,17.48
2022-09-21T15:30:24.294Z,18.02
2022-09-21T15:32:54.060Z,17.91
2022-09-21T15:35:23.136Z,17.74
2022-09-21T15:37:52.035Z,17.63
2022-09-21T15:40:22.761Z,17.32
2022-09-21T15:43:00.798Z,17.83
2022-09-21T15:45:33.827Z,17.27
2022-09-21T15:48:01.996Z,17.31
2022-09-21T15:50:30.296Z,17.18
2022-09-21T15:53:01.353Z,16.90
2022-09-21T15:55:30.233Z,16.96
2022-09-21T15:57:58.688Z,17.23
2022-09-21T16:00:28.292Z,17.52
2022-09-21T16:03:06.240Z,16.99
2022-09-21T16:05:45.400Z,17.38
2022-09-21T16:08:30.151Z,16.67
2022-09-21T16:11:19.760Z,16.66
2022-09-21T16:14:05.438Z,16.44
2022-09-21T16:16:33.246Z,16.25
2022-09-21T16:19:02.226Z,16.11
2022-09-21T16:21:32.797Z,16.52
2022-09-21T16:24:12.280Z,16.61
2022-09-21T16:26:42.966Z,16.46
2022-09-21T16:29:23.419Z,16.64
2022-09-21T16:31:51.421Z,16.78
2022-09-21T16:34:32.935Z,16.37
2022-09-21T16:37:02.199Z,16.34
2022-09-21T16:39:29.696Z,16.32
2022-09-21T16:41:59.943Z,16.28
2022-09-21T16:44:31.400Z,16.15
2022-09-21T16:47:00.436Z,16.06
2022-09-21T16:49:32.012Z,15.72
2022-09-21T16:51:59.838Z,15.55
2022-09-21T16:54:27.711Z,15.23
2022-09-21T16:56:57.829Z,14.98
2022-09-21T16:59:25.770Z,14.83
2022-09-21T17:01:56.555Z,14.59
2022-09-21T17:04:25.943Z,14.43
2022-09-21T17:06:55.403Z,14.26
2022-09-21T17:09:29.536Z,14.07
2022-09-21T17:11:59.224Z,13.84
2022-09-21T17:14:26.790Z,13.51
2022-09-21T17:16:58.357Z,13.26
2022-09-21T17:19:26.397Z,13.11
2022-09-21T17:21:55.344Z,12.90
2022-09-21T17:24:39.233Z,12.73
2022-09-21T17:27:10.536Z,12.51
2022-09-21T17:29:40.114Z,12.37
2022-09-21T17:32:11.253Z,12.14
2022-09-21T17:34:38.772Z,11.92
2022-09-21T17:37:09.749Z,11.78
2022-09-21T17:39:37.303Z,11.63
2022-09-21T17:42:13.367Z,11.55
2022-09-21T17:44:53.015Z,11.36
2022-09-21T17:47:22.023Z,11.13
2022-09-21T17:49:50.027Z,10.90
2022-09-21T17:52:37.912Z,10.77
2022-09-21T17:55:08.304Z,10.61
2022-09-21T17:57:47.430Z,10.55
2022-09-21T18:00:20.591Z,10.40
2022-09-21T18:02:48.685Z,10.31
2022-09-21T18:05:22.728Z,10.17
2022-09-21T18:07:52.364Z,10.05
2022-09-21T18:10:21.235Z,10.03
2022-09-21T18:13:11.735Z,9.93
2022-09-21T18:15:48.876Z,10.10
2022-09-21T18:18:20.666Z,10.18
2022-09-21T18:20:57.711Z,10.15
2022-09-21T18:23:36.028Z,10.05
2022-09-21T18:26:04.379Z,9.95
2022-09-21T18:28:40.179Z,10.00
2022-09-21T18:31:24.260Z,9.99
2022-09-21T18:33:57.314Z,9.95
2022-09-21T18:36:28.875Z,9.83
2022-09-21T18:39:06.762Z,9.66
2022-09-21T18:41:39.151Z,9.60
2022-09-21T18:44:14.199Z,9.59
2022-09-21T18:46:51.483Z,9.47
2022-09-21T18:49:29.325Z,9.44
2022-09-21T18:52:01.482Z,9.33
2022-09-21T18:54:30.812Z,9.16
2022-09-21T18:56:59.128Z,9.05
2022-09-21T18:59:31.725Z,8.93
2022-09-21T19:02:00.299Z,8.88
2022-09-21T19:04:29.016Z,8.97
2022-09-21T19:07:01.608Z,9.08
2022-09-21T19:09:38.023Z,8.98
2022-09-21T19:12:14.412Z,8.97
2022-09-21T19:14:48.690Z,9.06
2022-09-21T19:17:25.502Z,8.95
2022-09-21T19:20:04.488Z,8.92
2022-09-21T19:22:38.757Z,8.70
2022-09-21T19:25:12.886Z,8.62
2022-09-21T19:27:44.498Z,8.55
2022-09-21T19:30:13.522Z,8.54
2022-09-21T19:32:45.317Z,8.65
2022-09-21T19:35:23.777Z,8.68
2022-09-21T19:37:52.855Z,8.69
2022-09-21T19:40:23.791Z,8.58
2022-09-21T19:43:10.062Z,8.44
2022-09-21T19:45:47.294Z,8.30
2022-09-21T19:48:16.085Z,8.21
2022-09-21T19:50:47.590Z,8.16
2022-09-21T19:53:33.541Z,8.14
2022-09-21T19:56:20.558Z,8.04
2022-09-21T19:59:05.867Z,8.05
2022-09-21T20:01:36.641Z,7.99
2022-09-21T20:04:05.144Z,7.87
2022-09-21T20:06:36.199Z,7.76
2022-09-21T20:09:09.847Z,7.81
2022-09-21T20:11:44.543Z,7.78
2022-09-21T20:14:21.452Z,7.75
2022-09-21T20:16:50.932Z,7.69
2022-09-21T20:19:38.895Z,7.64
2022-09-21T20:22:12.749Z,7.85
2022-09-21T20:24:45.479Z,7.88
2022-09-21T20:27:30.239Z,7.79
2022-09-21T20:29:57.716Z,7.69
2022-09-21T20:32:25.315Z,7.53
2022-09-21T20:34:52.799Z,7.52
2022-09-21T20:37:21.027Z,7.50
2022-09-21T20:39:48.547Z,7.30
2022-09-21T20:42:20.231Z,7.37
2022-09-21T20:44:47.730Z,7.54
2022-09-21T20:47:15.283Z,7.44
2022-09-21T20:49:42.799Z,7.37
2022-09-21T20:52:11.192Z,7.25
2022-09-21T20:54:38.689Z,7.12
2022-09-21T20:57:06.295Z,7.21
2022-09-21T20:59:35.155Z,7.35
2022-09-21T21:02:02.764Z,7.42
2022-09-21T21:04:30.351Z,7.37
2022-09-21T21:06:57.880Z,7.32
2022-09-21T21:09:25.406Z,7.31
2022-09-21T21:11:53.112Z,7.27
2022-09-21T21:14:20.704Z,7.14
2022-09-21T21:16:49.588Z,6.95
2022-09-21T21:19:17.503Z,6.77
2022-09-21T21:21:45.412Z,6.66
2022-09-21T21:24:31.128Z,6.71
2022-09-21T21:27:02.283Z,6.93
2022-09-21T21:29:30.420Z,7.04
2022-09-21T21:31:59.940Z,7.09
2022-09-21T21:34:27.543Z,6.96
2022-09-21T21:36:55.174Z,6.89
2022-09-21T21:39:22.691Z,6.97
2022-09-21T21:41:50.251Z,6.93
2022-09-21T21:44:17.772Z,6.73
2022-09-21T21:46:45.256Z,6.78
2022-09-21T21:49:14.219Z,6.89
2022-09-21T21:51:41.771Z,6.84
2022-09-21T21:54:09.423Z,6.75
2022-09-21T21:56:36.960Z,6.67
2022-09-21T21:59:04.910Z,6.60
2022-09-21T22:01:32.464Z,6.77
2022-09-21T22:04:02.138Z,6.77
2022-09-21T22:06:32.931Z,6.72
2022-09-21T22:09:00.663Z,6.73
2022-09-21T22:11:28.997Z,6.74
2022-09-21T22:13:57.766Z,6.80
2022-09-21T22:16:27.576Z,6.88
2022-09-21T22:18:56.071Z,6.78
2022-09-21T22:21:25.083Z,6.68
2022-09-21T22:23:54.831Z,6.67
2022-09-21T22:26:22.836Z,6.73
2022-09-21T22:28:52.122Z,6.70
2022-09-21T22:31:21.254Z,6.61
2022-09-21T22:33:49.804Z,6.52
2022-09-21T22:36:19.480Z,6.51
2022-09-21T22:38:47.614Z,6.56
2022-09-21T22:41:18.225Z,6.58
2022-09-21T22:43:46.316Z,6.53
2022-09-21T22:46:14.292Z,6.48
2022-09-21T22:48:41.836Z,6.47
2022-09-21T22:51:10.887Z,6.48
2022-09-21T22:53:38.408Z,6.50
2022-09-21T22:56:07.762Z,6.47
2022-09-21T22:58:38.420Z,6.48
2022-09-21T23:01:07.206Z,6.54
2022-09-21T23:03:35.433Z,6.52
2022-09-21T23:06:03.192Z,6.49
2022-09-21T23:08:31.262Z,6.48
2022-09-21T23:11:08.284Z,6.51
2022-09-21T23:13:37.187Z,6.33
2022-09-21T23:16:05.986Z,6.21
2022-09-21T23:18:34.178Z,6.18
2022-09-21T23:21:03.823Z,6.30
2022-09-21T23:23:31.331Z,6.26
2022-09-21T23:26:03.397Z,6.03
2022-09-21T23:28:30.922Z,5.94
2022-09-21T23:32:20.679Z,5.98
2022-09-21T23:34:48.337Z,6.08
2022-09-21T23:37:15.923Z,6.07
2022-09-21T23:39:43.440Z,5.95
2022-09-21T23:42:10.986Z,5.82
2022-09-21T23:44:38.490Z,5.72
2022-09-21T23:47:06.174Z,5.87
2022-09-21T23:49:35.113Z,5.93
2022-09-21T23:52:03.327Z,5.93
2022-09-21T23:54:30.846Z,5.91
2022-09-21T23:56:58.368Z,5.69
2022-09-21T23:59:25.875Z,5.53
